Portada
METAR-TAF:

METAR-TAF

Aeropuertos :

Aeropuerto Internacional Shaikh Zayed

Rahim Yar Khan, Pakistán

latitud: 28-23-02N, longitud: 70-16-47E, altitud: 83 m

METAR: falta

Hora: 09:10 (04:10 UTC)

Pronóstico

El informe se hizo hace 6 horas y 25 minutos, a las 21:45 UTC
Pronóstico válido del 01 a las 00 UTC al 01 a las 18 UTC
Viento 10 kt del noroeste
Visibilidad: 5000 m
Nubes dispersas a una altura de 10000 ft
calima

TAF: OPRK 312145Z 0100/0118 31010KT 5000 HZ SCT100 TN28/0101Z TX42/0110Z

Observaciones y pronósticos meteorológicos de más de 4000 aeropuertos (mensajes METAR y TAF).

Los puntos amarillos y rojos representan las estaciones disponibles.

Ponga el ratón en el punto deseado para ver el nombre de la estación.

Haga clic para ver las observaciones y los pronósticos meteorológicos.

Para cambiar el mapa : haga clic en los botones verdes con una cruz de color negro para hacer un zoom, en el botón verde con un guión para alejar o en las flechas verdes para mapas adyacentes.


METAR-TAF: